createdAt,value
2019-05-07T00:02:52.219Z,43.00
2019-05-07T00:05:56.366Z,43.10
2019-05-07T00:09:00.270Z,43.20
2019-05-07T00:12:05.066Z,44.60
2019-05-07T00:15:09.455Z,45.00
2019-05-07T00:18:13.113Z,45.70
2019-05-07T00:21:17.044Z,46.30
2019-05-07T00:24:22.356Z,48.80
2019-05-07T00:27:26.169Z,48.20
2019-05-07T00:30:32.977Z,49.10
2019-05-07T00:33:36.953Z,50.70
2019-05-07T00:37:06.867Z,50.80
2019-05-07T00:40:22.636Z,52.00
2019-05-07T00:43:29.495Z,53.10
2019-05-07T00:46:33.187Z,55.00
2019-05-07T00:49:36.919Z,56.00
2019-05-07T00:52:42.836Z,57.70
2019-05-07T00:55:46.061Z,57.00
2019-05-07T00:58:49.782Z,57.50
2019-05-07T01:01:53.811Z,59.90
2019-05-07T01:04:57.489Z,59.40
2019-05-07T01:08:02.603Z,61.00
2019-05-07T01:11:06.585Z,61.50
2019-05-07T01:14:12.355Z,61.00
2019-05-07T01:17:15.933Z,60.40
2019-05-07T01:20:21.977Z,61.90
2019-05-07T01:23:25.098Z,63.30
2019-05-07T01:26:29.017Z,63.70
2019-05-07T01:29:32.955Z,63.80
2019-05-07T01:32:45.929Z,64.00
2019-05-07T01:36:14.545Z,63.30
2019-05-07T01:39:18.486Z,62.20
2019-05-07T01:42:22.326Z,63.00
2019-05-07T01:45:26.277Z,63.50
2019-05-07T01:48:32.203Z,63.10
2019-05-07T01:51:35.610Z,63.30
2019-05-07T01:54:39.315Z,62.80
2019-05-07T01:57:43.025Z,64.00
2019-05-07T02:00:46.663Z,63.40
2019-05-07T02:03:56.702Z,63.70
2019-05-07T02:07:17.413Z,64.10
2019-05-07T02:10:38.235Z,65.40
2019-05-07T02:13:42.116Z,64.40
2019-05-07T02:16:45.801Z,64.30
2019-05-07T02:19:49.509Z,64.60
2019-05-07T02:22:53.381Z,63.40
2019-05-07T02:25:57.238Z,62.40
2019-05-07T02:29:02.761Z,62.50
2019-05-07T02:32:06.536Z,62.00
2019-05-07T02:35:13.651Z,61.50
2019-05-07T02:38:23.000Z,62.20
2019-05-07T02:41:32.830Z,61.50
2019-05-07T02:44:54.742Z,60.90
2019-05-07T02:47:58.428Z,61.20
2019-05-07T02:51:07.487Z,61.80
2019-05-07T02:54:25.572Z,61.10
2019-05-07T02:57:29.781Z,61.70
2019-05-07T03:00:34.623Z,62.00
2019-05-07T03:03:39.097Z,61.80
2019-05-07T03:06:44.358Z,62.40
2019-05-07T03:09:48.451Z,62.60
2019-05-07T03:12:53.682Z,63.00
2019-05-07T03:15:57.889Z,62.40
2019-05-07T03:19:04.034Z,63.90
2019-05-07T03:22:07.507Z,63.60
2019-05-07T03:25:17.036Z,64.80
2019-05-07T03:28:23.131Z,63.50
2019-05-07T03:31:58.323Z,65.10
2019-05-07T03:35:27.428Z,64.80
2019-05-07T03:38:28.655Z,63.70
2019-05-07T03:41:33.340Z,63.80
2019-05-07T03:44:44.651Z,64.70
2019-05-07T03:47:54.271Z,65.40
2019-05-07T03:50:58.076Z,65.10
2019-05-07T03:54:02.980Z,65.00
2019-05-07T03:57:11.437Z,64.50
2019-05-07T04:00:13.318Z,65.00
2019-05-07T04:03:19.640Z,64.70
2019-05-07T04:06:23.479Z,65.20
2019-05-07T04:09:27.959Z,64.50
2019-05-07T04:12:34.249Z,63.80
2019-05-07T04:15:37.512Z,63.00
2019-05-07T04:18:43.766Z,62.70
2019-05-07T04:21:46.578Z,62.70
2019-05-07T04:24:58.104Z,62.90
2019-05-07T04:28:10.728Z,63.10
2019-05-07T04:31:14.647Z,61.70
2019-05-07T04:34:40.299Z,62.40
2019-05-07T04:37:44.022Z,62.60
2019-05-07T04:40:48.750Z,62.00
2019-05-07T04:43:54.070Z,62.70
2019-05-07T04:46:58.246Z,61.90
2019-05-07T04:50:03.863Z,61.70
2019-05-07T04:53:07.298Z,60.70
2019-05-07T04:56:13.855Z,61.00
2019-05-07T04:59:16.682Z,60.60
2019-05-07T05:02:23.167Z,59.70
2019-05-07T05:05:27.124Z,59.10
2019-05-07T05:08:32.487Z,59.40
2019-05-07T05:11:36.458Z,58.20
2019-05-07T05:14:43.207Z,56.40
2019-05-07T05:17:50.031Z,57.10
2019-05-07T05:21:17.234Z,56.90
2019-05-07T05:24:26.447Z,54.50
2019-05-07T05:27:32.597Z,55.20
2019-05-07T05:30:42.883Z,52.50
2019-05-07T05:33:46.555Z,53.40
2019-05-07T05:36:50.233Z,53.30
2019-05-07T05:40:05.619Z,52.10
2019-05-07T05:43:06.402Z,51.40
2019-05-07T05:46:12.085Z,49.80
2019-05-07T05:49:15.882Z,49.40
2019-05-07T05:52:42.496Z,46.60
2019-05-07T05:55:46.681Z,45.10
2019-05-07T05:59:04.218Z,43.80
2019-05-07T06:02:22.671Z,43.70
2019-05-07T06:05:48.073Z,41.70
2019-05-07T06:09:02.284Z,38.70
2019-05-07T06:12:32.792Z,35.40
2019-05-07T06:15:56.085Z,35.70
2019-05-07T06:19:16.750Z,35.50
2019-05-07T06:22:33.064Z,35.40
2019-05-07T06:25:37.099Z,33.60
2019-05-07T06:28:42.524Z,32.90
2019-05-07T06:32:02.479Z,30.80
2019-05-07T06:35:05.761Z,28.90
2019-05-07T06:38:12.291Z,29.40
2019-05-07T06:41:41.890Z,29.60
2019-05-07T06:45:02.787Z,30.00
2019-05-07T06:48:06.226Z,27.70
2019-05-07T06:51:09.962Z,28.50
2019-05-07T06:54:13.906Z,27.70
2019-05-07T06:57:17.576Z,27.50
2019-05-07T07:00:42.098Z,26.40
2019-05-07T07:04:02.638Z,25.20
2019-05-07T07:07:26.621Z,26.40
2019-05-07T07:10:45.798Z,25.00
2019-05-07T07:13:51.886Z,24.20
2019-05-07T07:16:55.390Z,25.40
2019-05-07T07:20:01.869Z,24.80
2019-05-07T07:23:05.131Z,25.50
2019-05-07T07:26:09.109Z,25.60
2019-05-07T07:29:14.401Z,27.10
2019-05-07T07:32:22.098Z,26.70
2019-05-07T07:35:25.949Z,24.10
2019-05-07T07:38:33.037Z,23.80
2019-05-07T07:41:39.394Z,24.10
2019-05-07T07:44:43.367Z,24.00
2019-05-07T07:47:47.397Z,24.00
2019-05-07T07:50:52.429Z,22.90
2019-05-07T07:53:56.185Z,23.70
2019-05-07T07:57:12.740Z,22.60
2019-05-07T08:00:29.777Z,23.00
2019-05-07T08:03:32.956Z,23.60
2019-05-07T08:06:39.180Z,23.00
2019-05-07T08:09:43.538Z,22.20
2019-05-07T08:12:47.298Z,22.90
2019-05-07T08:15:51.918Z,22.60
2019-05-07T08:18:55.705Z,22.80
2019-05-07T08:21:59.457Z,21.40
2019-05-07T08:25:04.734Z,21.10
2019-05-07T08:28:08.482Z,22.60
2019-05-07T08:31:22.475Z,22.10
2019-05-07T08:34:38.807Z,21.40
2019-05-07T08:37:42.769Z,22.20
2019-05-07T08:40:48.903Z,21.80
2019-05-07T08:44:08.118Z,21.90
2019-05-07T08:47:24.981Z,21.90
2019-05-07T08:50:28.993Z,20.40
2019-05-07T08:53:32.878Z,21.00
2019-05-07T08:56:37.309Z,18.30
2019-05-07T08:59:43.698Z,18.90
2019-05-07T09:02:47.017Z,19.10
2019-05-07T09:05:52.011Z,18.80
2019-05-07T09:08:55.794Z,18.20
2019-05-07T09:11:59.726Z,19.10
2019-05-07T09:15:03.505Z,20.30
2019-05-07T09:18:07.351Z,19.90
2019-05-07T09:21:12.625Z,20.60
2019-05-07T09:24:16.590Z,17.20
2019-05-07T09:27:27.743Z,16.90
2019-05-07T09:30:52.561Z,17.00
2019-05-07T09:33:56.766Z,19.20
2019-05-07T09:37:02.490Z,19.30
2019-05-07T09:40:06.375Z,18.60
2019-05-07T09:43:11.780Z,19.00
2019-05-07T09:46:16.071Z,19.20
2019-05-07T09:49:22.121Z,19.50
2019-05-07T09:52:25.454Z,19.40
2019-05-07T09:55:29.122Z,16.90
2019-05-07T09:58:38.809Z,17.10
2019-05-07T10:01:38.337Z,15.80
2019-05-07T10:04:42.234Z,15.70
2019-05-07T10:07:46.003Z,15.90
2019-05-07T10:10:51.234Z,15.70
2019-05-07T10:14:01.969Z,17.00
2019-05-07T10:17:27.364Z,17.70
2019-05-07T10:20:32.731Z,16.90
2019-05-07T10:23:36.986Z,17.70
2019-05-07T10:26:42.728Z,17.20
2019-05-07T10:29:46.377Z,18.00
2019-05-07T10:32:52.550Z,17.10
2019-05-07T10:35:55.721Z,15.70
2019-05-07T10:38:59.437Z,14.00
2019-05-07T10:42:03.129Z,14.80
2019-05-07T10:45:18.821Z,14.10
2019-05-07T10:48:29.279Z,14.60
2019-05-07T10:51:32.986Z,15.40
2019-05-07T10:54:36.630Z,15.10
2019-05-07T10:57:42.244Z,14.00
2019-05-07T11:00:46.686Z,14.10
2019-05-07T11:03:51.730Z,13.60
2019-05-07T11:06:55.810Z,13.90
2019-05-07T11:10:01.818Z,13.80
2019-05-07T11:13:05.497Z,15.10
2019-05-07T11:16:12.550Z,16.00
2019-05-07T11:19:18.793Z,14.50
2019-05-07T11:22:22.155Z,14.60
2019-05-07T11:25:25.860Z,14.80
2019-05-07T11:28:29.526Z,14.30
2019-05-07T11:31:33.390Z,14.60
2019-05-07T11:34:37.257Z,14.10
2019-05-07T11:37:44.090Z,12.80
2019-05-07T11:40:46.407Z,12.40
2019-05-07T11:44:13.218Z,12.30
2019-05-07T11:47:22.825Z,11.70
2019-05-07T11:51:00.450Z,11.90
2019-05-07T11:54:12.628Z,11.10
2019-05-07T11:57:16.982Z,9.60
2019-05-07T12:00:32.730Z,9.60
2019-05-07T12:03:36.487Z,9.40
2019-05-07T12:06:40.267Z,10.00
2019-05-07T12:09:44.032Z,12.30
2019-05-07T12:12:47.981Z,13.20
2019-05-07T12:15:52.336Z,12.90
2019-05-07T12:18:56.145Z,12.80
2019-05-07T12:21:59.800Z,11.80
2019-05-07T12:25:03.654Z,12.10
2019-05-07T12:28:07.650Z,12.30
2019-05-07T12:31:29.000Z,11.70
2019-05-07T12:34:42.557Z,11.90
2019-05-07T12:37:49.460Z,12.50
2019-05-07T12:40:52.385Z,12.30
2019-05-07T12:43:56.329Z,11.50
2019-05-07T12:47:01.699Z,9.60
2019-05-07T12:50:05.766Z,9.20
2019-05-07T12:53:34.528Z,10.70
2019-05-07T12:56:38.213Z,10.90
2019-05-07T12:59:42.637Z,11.40
2019-05-07T13:02:52.846Z,11.60
2019-05-07T13:05:56.658Z,10.60
2019-05-07T13:09:00.855Z,10.90
2019-05-07T13:12:04.528Z,10.50
2019-05-07T13:15:21.948Z,10.00
2019-05-07T13:18:14.259Z,10.30
2019-05-07T13:21:18.887Z,10.00
2019-05-07T13:24:22.994Z,9.40
2019-05-07T13:27:26.677Z,9.50
2019-05-07T13:30:30.644Z,9.50
2019-05-07T13:33:35.444Z,8.60
2019-05-07T13:36:42.722Z,7.70
2019-05-07T13:39:53.861Z,8.30
2019-05-07T13:43:04.356Z,7.80
2019-05-07T13:46:12.738Z,8.30
2019-05-07T13:49:17.328Z,7.50
2019-05-07T13:52:22.107Z,8.10
2019-05-07T13:55:26.431Z,5.70
2019-05-07T13:58:32.738Z,7.10
2019-05-07T14:01:47.718Z,7.00
2019-05-07T14:05:00.319Z,5.40
2019-05-07T14:08:04.653Z,7.00
2019-05-07T14:11:08.494Z,5.80
2019-05-07T14:14:12.583Z,7.20
2019-05-07T14:17:16.245Z,7.40
2019-05-07T14:20:22.071Z,7.30
2019-05-07T14:23:25.721Z,7.80
2019-05-07T14:26:29.375Z,7.40
2019-05-07T14:29:33.097Z,8.10
2019-05-07T14:32:55.905Z,7.20
2019-05-07T14:36:04.902Z,8.00
2019-05-07T14:39:09.170Z,7.10
2019-05-07T14:42:17.228Z,6.00
2019-05-07T14:45:23.605Z,6.30
2019-05-07T14:48:26.910Z,6.80
2019-05-07T14:51:32.523Z,7.90
2019-05-07T14:54:36.330Z,8.30
2019-05-07T14:57:43.228Z,8.90
2019-05-07T15:00:46.959Z,7.50
2019-05-07T15:03:51.677Z,8.60
2019-05-07T15:06:55.402Z,8.70
2019-05-07T15:09:59.162Z,8.90
2019-05-07T15:13:02.959Z,8.80
2019-05-07T15:16:07.025Z,8.70
2019-05-07T15:19:12.435Z,8.80
2019-05-07T15:22:45.835Z,8.50
2019-05-07T15:25:37.488Z,9.60
2019-05-07T15:28:42.968Z,8.60
2019-05-07T15:32:06.161Z,8.80
2019-05-07T15:35:12.441Z,9.50
2019-05-07T15:38:16.037Z,9.90
2019-05-07T15:41:20.287Z,9.50
2019-05-07T15:44:24.229Z,9.70
2019-05-07T15:47:33.855Z,9.90
2019-05-07T15:50:37.795Z,10.50
2019-05-07T15:53:48.578Z,9.70
2019-05-07T15:56:55.632Z,9.40
2019-05-07T16:00:05.761Z,9.60
2019-05-07T16:03:22.186Z,9.90
2019-05-07T16:06:26.426Z,10.20
2019-05-07T16:09:43.143Z,10.20
2019-05-07T16:12:47.407Z,9.80
2019-05-07T16:15:52.858Z,9.80
2019-05-07T16:19:06.820Z,10.10
2019-05-07T16:22:14.666Z,10.30
2019-05-07T16:25:18.372Z,10.30
2019-05-07T16:28:22.300Z,10.60
2019-05-07T16:31:26.270Z,10.50
2019-05-07T16:34:32.387Z,9.90
2019-05-07T16:37:35.385Z,9.70
2019-05-07T16:40:39.278Z,10.20
2019-05-07T16:43:42.973Z,11.00
2019-05-07T16:46:46.920Z,10.80
2019-05-07T16:49:50.826Z,11.10
2019-05-07T16:52:54.587Z,11.10
2019-05-07T16:55:58.337Z,11.40
2019-05-07T16:59:04.426Z,11.80
2019-05-07T17:02:14.485Z,11.40
2019-05-07T17:05:18.469Z,11.80
2019-05-07T17:08:27.559Z,11.10
2019-05-07T17:11:48.706Z,11.50
2019-05-07T17:14:52.477Z,11.70
2019-05-07T17:17:59.294Z,11.70
2019-05-07T17:21:03.048Z,11.60
2019-05-07T17:24:06.759Z,11.50
2019-05-07T17:27:11.920Z,11.50
2019-05-07T17:30:15.898Z,12.10
2019-05-07T17:33:19.781Z,11.40
2019-05-07T17:36:23.512Z,11.70
2019-05-07T17:39:27.453Z,12.00
2019-05-07T17:42:32.864Z,11.70
2019-05-07T17:45:36.781Z,11.30
2019-05-07T17:48:42.654Z,12.00
2019-05-07T17:51:46.192Z,11.70
2019-05-07T17:54:49.862Z,11.60
2019-05-07T17:57:53.583Z,11.80
2019-05-07T18:00:58.781Z,12.00
2019-05-07T18:04:03.076Z,12.40
2019-05-07T18:07:06.914Z,12.60
2019-05-07T18:10:12.581Z,12.50
2019-05-07T18:13:16.582Z,12.60
2019-05-07T18:16:38.204Z,13.20
2019-05-07T18:19:43.082Z,13.20
2019-05-07T18:22:46.943Z,13.20
2019-05-07T18:25:52.509Z,13.70
2019-05-07T18:29:11.808Z,14.20
2019-05-07T18:32:15.159Z,13.60
2019-05-07T18:35:19.698Z,14.10
2019-05-07T18:38:24.030Z,14.00
2019-05-07T18:41:28.147Z,14.50
2019-05-07T18:44:31.814Z,14.50
2019-05-07T18:47:35.710Z,14.30
2019-05-07T18:50:41.820Z,14.50
2019-05-07T18:53:45.370Z,14.50
2019-05-07T18:56:49.437Z,14.50
2019-05-07T18:59:53.730Z,14.40
2019-05-07T19:02:57.448Z,14.30
2019-05-07T19:06:02.788Z,14.60
2019-05-07T19:09:08.385Z,14.40
2019-05-07T19:12:14.015Z,14.40
2019-05-07T19:15:18.143Z,14.30
2019-05-07T19:18:22.800Z,14.90
2019-05-07T19:21:26.822Z,14.80
2019-05-07T19:24:42.207Z,15.10
2019-05-07T19:27:37.589Z,15.00
2019-05-07T19:30:42.024Z,15.10
2019-05-07T19:33:45.981Z,15.20
2019-05-07T19:36:51.836Z,15.20
2019-05-07T19:39:55.366Z,15.20
2019-05-07T19:42:59.297Z,15.60
2019-05-07T19:46:03.040Z,15.80
2019-05-07T19:49:07.439Z,15.70
2019-05-07T19:52:12.448Z,15.70
2019-05-07T19:55:16.495Z,16.10
2019-05-07T19:58:20.241Z,16.10
2019-05-07T20:01:44.183Z,16.40
2019-05-07T20:04:48.065Z,16.60
2019-05-07T20:07:55.617Z,16.70
2019-05-07T20:11:02.761Z,17.00
2019-05-07T20:14:06.679Z,17.30
2019-05-07T20:17:12.255Z,17.50
2019-05-07T20:20:17.559Z,17.50
2019-05-07T20:23:22.753Z,18.50
2019-05-07T20:26:26.583Z,19.20
2019-05-07T20:29:32.318Z,19.30
2019-05-07T20:32:37.245Z,19.40
2019-05-07T20:35:43.760Z,19.80
2019-05-07T20:38:47.278Z,20.00
2019-05-07T20:42:03.175Z,20.50
2019-05-07T20:45:07.208Z,20.70
2019-05-07T20:48:10.885Z,21.10
2019-05-07T20:51:14.566Z,21.60
2019-05-07T20:54:25.007Z,21.80
2019-05-07T20:57:32.769Z,21.70
2019-05-07T21:00:36.629Z,22.10
2019-05-07T21:03:42.352Z,22.70
2019-05-07T21:06:45.734Z,23.40
2019-05-07T21:09:49.881Z,23.00
2019-05-07T21:12:53.596Z,23.10
2019-05-07T21:15:57.539Z,23.30
2019-05-07T21:19:02.098Z,23.70
2019-05-07T21:22:06.703Z,23.00
2019-05-07T21:25:12.023Z,22.70
2019-05-07T21:28:15.917Z,23.00
2019-05-07T21:31:19.621Z,22.90
2019-05-07T21:34:23.317Z,22.90
2019-05-07T21:37:26.979Z,23.20
2019-05-07T21:40:32.068Z,23.20
2019-05-07T21:43:36.182Z,23.40
2019-05-07T21:46:42.321Z,23.70
2019-05-07T21:49:45.400Z,23.60
2019-05-07T21:52:54.251Z,23.70
2019-05-07T21:56:32.446Z,24.00
2019-05-07T21:59:36.882Z,23.80
2019-05-07T22:02:41.856Z,24.10
2019-05-07T22:05:45.826Z,24.30
2019-05-07T22:08:49.536Z,24.60
2019-05-07T22:11:54.158Z,24.90
2019-05-07T22:14:57.871Z,25.20
2019-05-07T22:18:02.729Z,25.10
2019-05-07T22:21:06.549Z,25.40
2019-05-07T22:24:10.277Z,25.60
2019-05-07T22:27:14.152Z,26.30
2019-05-07T22:30:24.741Z,26.20
2019-05-07T22:33:35.958Z,26.50
2019-05-07T22:36:39.601Z,26.60
2019-05-07T22:39:43.323Z,26.90
2019-05-07T22:42:47.046Z,27.40
2019-05-07T22:45:50.758Z,27.40
2019-05-07T22:48:54.425Z,27.50
2019-05-07T22:51:58.111Z,27.80
2019-05-07T22:55:01.869Z,27.90
2019-05-07T22:58:14.454Z,28.20
2019-05-07T23:01:18.289Z,28.30
2019-05-07T23:04:23.062Z,28.50
2019-05-07T23:07:27.241Z,28.50
2019-05-07T23:10:33.298Z,28.50
2019-05-07T23:13:37.458Z,28.80
2019-05-07T23:16:43.081Z,29.20
2019-05-07T23:19:47.098Z,29.20
2019-05-07T23:22:52.005Z,29.30
2019-05-07T23:25:55.822Z,29.60
2019-05-07T23:28:59.574Z,29.90
2019-05-07T23:32:03.306Z,29.90
2019-05-07T23:35:07.821Z,30.00
2019-05-07T23:38:12.959Z,30.40
2019-05-07T23:41:32.940Z,30.40
2019-05-07T23:44:36.799Z,30.40
2019-05-07T23:47:44.409Z,30.60
2019-05-07T23:50:46.158Z,30.80
2019-05-07T23:53:51.898Z,31.00
2019-05-07T23:57:05.875Z,31.30
